N960 KLAX-KSAN
Flight info
| Callsign | N960 |
|---|---|
| Flight time | 0h 36m |
| Altitude | 20000 |
| Route | LAXX1 MZB |
| Aircraft | C25C/M-BGS/L |
Departure
| Time | 2026-04-25 22:22 |
|---|---|
| Airport | Los Angeles International Airport (KLAX) |
Arrival
| Time | 2026-04-25 22:58 |
|---|---|
| Airport | San Diego International Airport (KSAN) |
| Time | Latitude | Longitude | Altitude | Speed | Heading |
|---|---|---|---|---|---|
| 2026-04-25 22:04 | 33.93362 | -118.39412 | 119 ft | 0 kts | 271° |
| 2026-04-25 22:13 | 33.93363 | -118.39417 | 117 ft | 3 kts | 275° |
| 2026-04-25 22:14 | 33.93363 | -118.39420 | 118 ft | 0 kts | 276° |
| 2026-04-25 22:14 | 33.93363 | -118.39421 | 118 ft | 0 kts | 273° |
| 2026-04-25 22:17 | 33.93363 | -118.39418 | 117 ft | 2 kts | 266° |
| 2026-04-25 22:17 | 33.93371 | -118.39402 | 118 ft | 2 kts | 206° |
| 2026-04-25 22:17 | 33.93386 | -118.39402 | 118 ft | 2 kts | 147° |
| 2026-04-25 22:17 | 33.93395 | -118.39417 | 119 ft | 2 kts | 100° |
| 2026-04-25 22:18 | 33.93400 | -118.39407 | 119 ft | 7 kts | 41° |
| 2026-04-25 22:18 | 33.93499 | -118.39362 | 119 ft | 21 kts | 60° |
| 2026-04-25 22:18 | 33.93527 | -118.39188 | 119 ft | 21 kts | 82° |
| 2026-04-25 22:18 | 33.93542 | -118.39009 | 119 ft | 22 kts | 85° |
| 2026-04-25 22:19 | 33.93557 | -118.38828 | 119 ft | 22 kts | 83° |
| 2026-04-25 22:19 | 33.93574 | -118.38645 | 119 ft | 22 kts | 84° |
| 2026-04-25 22:19 | 33.93594 | -118.38460 | 116 ft | 22 kts | 83° |
| 2026-04-25 22:19 | 33.93641 | -118.38290 | 117 ft | 20 kts | 29° |
| 2026-04-25 22:20 | 33.93731 | -118.38329 | 119 ft | 12 kts | 270° |
| 2026-04-25 22:20 | 33.93731 | -118.38338 | 119 ft | 0 kts | 266° |
| 2026-04-25 22:21 | 33.93718 | -118.38468 | 119 ft | 42 kts | 263° |
| 2026-04-25 22:21 | 33.93637 | -118.39231 | 204 ft | 133 kts | 262° |
| 2026-04-25 22:22 | 33.93511 | -118.40492 | 451 ft | 172 kts | 260° |
| 2026-04-25 22:22 | 33.93358 | -118.41999 | 929 ft | 182 kts | 259° |
| 2026-04-25 22:22 | 33.93186 | -118.43507 | 1556 ft | 183 kts | 259° |
| 2026-04-25 22:22 | 33.93009 | -118.45019 | 2189 ft | 185 kts | 261° |
| 2026-04-25 22:23 | 33.92819 | -118.46552 | 2795 ft | 187 kts | 260° |
| 2026-04-25 22:23 | 33.92601 | -118.48150 | 3179 ft | 200 kts | 260° |
| 2026-04-25 22:23 | 33.92369 | -118.49896 | 3283 ft | 223 kts | 258° |
| 2026-04-25 22:23 | 33.92075 | -118.51788 | 3364 ft | 233 kts | 257° |
| 2026-04-25 22:24 | 33.91706 | -118.53706 | 3480 ft | 231 kts | 256° |
| 2026-04-25 22:24 | 33.91334 | -118.55529 | 3815 ft | 222 kts | 255° |
| 2026-04-25 22:24 | 33.90942 | -118.57308 | 4085 ft | 217 kts | 255° |
| 2026-04-25 22:24 | 33.90529 | -118.59050 | 4296 ft | 216 kts | 253° |
| 2026-04-25 22:25 | 33.90053 | -118.60751 | 4538 ft | 212 kts | 248° |
| 2026-04-25 22:25 | 33.89289 | -118.62266 | 4683 ft | 216 kts | 231° |
| 2026-04-25 22:25 | 33.88127 | -118.63477 | 4679 ft | 227 kts | 213° |
| 2026-04-25 22:25 | 33.86673 | -118.64205 | 4860 ft | 227 kts | 196° |
| 2026-04-25 22:26 | 33.85105 | -118.64365 | 4969 ft | 232 kts | 179° |
| 2026-04-25 22:26 | 33.83447 | -118.64044 | 4758 ft | 247 kts | 174° |
| 2026-04-25 22:26 | 33.81726 | -118.64221 | 4511 ft | 256 kts | 196° |
| 2026-04-25 22:26 | 33.80006 | -118.64775 | 4396 ft | 253 kts | 199° |
| 2026-04-25 22:27 | 33.78376 | -118.65476 | 4271 ft | 246 kts | 203° |
| 2026-04-25 22:27 | 33.76823 | -118.66225 | 4393 ft | 232 kts | 205° |
| 2026-04-25 22:27 | 33.75304 | -118.66649 | 4636 ft | 220 kts | 183° |
| 2026-04-25 22:27 | 33.73866 | -118.66152 | 4701 ft | 222 kts | 147° |
| 2026-04-25 22:28 | 33.72952 | -118.64636 | 4507 ft | 233 kts | 111° |
| 2026-04-25 22:28 | 33.72393 | -118.62818 | 4410 ft | 235 kts | 110° |
| 2026-04-25 22:28 | 33.71869 | -118.60973 | 4465 ft | 231 kts | 110° |
| 2026-04-25 22:28 | 33.71332 | -118.59216 | 4670 ft | 221 kts | 112° |
| 2026-04-25 22:29 | 33.70760 | -118.57477 | 4636 ft | 223 kts | 113° |
| 2026-04-25 22:29 | 33.70203 | -118.55784 | 4871 ft | 215 kts | 112° |
| 2026-04-25 22:29 | 33.69586 | -118.54177 | 5216 ft | 205 kts | 128° |
| 2026-04-25 22:30 | 33.67131 | -118.52843 | 5722 ft | 205 kts | 181° |
| 2026-04-25 22:30 | 33.65716 | -118.52912 | 6317 ft | 203 kts | 192° |
| 2026-04-25 22:30 | 33.64283 | -118.53187 | 6802 ft | 215 kts | 193° |
| 2026-04-25 22:30 | 33.63293 | -118.53433 | 7078 ft | 222 kts | 195° |
| 2026-04-25 22:31 | 33.61222 | -118.53941 | 7666 ft | 231 kts | 193° |
| 2026-04-25 22:31 | 33.59623 | -118.54276 | 8077 ft | 235 kts | 192° |
| 2026-04-25 22:31 | 33.58001 | -118.54622 | 8475 ft | 238 kts | 192° |
| 2026-04-25 22:31 | 33.56370 | -118.54961 | 8932 ft | 238 kts | 193° |
| 2026-04-25 22:32 | 33.54772 | -118.55421 | 9347 ft | 237 kts | 203° |
| 2026-04-25 22:32 | 33.53105 | -118.55578 | 9469 ft | 259 kts | 166° |
| 2026-04-25 22:32 | 33.51609 | -118.54196 | 9267 ft | 290 kts | 129° |
| 2026-04-25 22:32 | 33.50739 | -118.52027 | 9529 ft | 293 kts | 114° |
| 2026-04-25 22:33 | 33.49959 | -118.49811 | 10032 ft | 285 kts | 116° |
| 2026-04-25 22:33 | 33.49138 | -118.47658 | 10330 ft | 286 kts | 116° |
| 2026-04-25 22:33 | 33.48403 | -118.45399 | 10425 ft | 293 kts | 115° |
| 2026-04-25 22:33 | 33.47591 | -118.43182 | 10792 ft | 289 kts | 117° |
| 2026-04-25 22:34 | 33.46757 | -118.40984 | 11135 ft | 289 kts | 120° |
| 2026-04-25 22:34 | 33.45845 | -118.38842 | 11442 ft | 289 kts | 122° |
| 2026-04-25 22:34 | 33.44877 | -118.36709 | 11666 ft | 294 kts | 123° |
| 2026-04-25 22:34 | 33.43887 | -118.34527 | 11854 ft | 305 kts | 123° |
| 2026-04-25 22:35 | 33.42867 | -118.32242 | 12170 ft | 314 kts | 122° |
| 2026-04-25 22:35 | 33.41945 | -118.29867 | 12764 ft | 314 kts | 119° |
| 2026-04-25 22:35 | 33.41061 | -118.27406 | 12899 ft | 329 kts | 118° |
| 2026-04-25 22:35 | 33.40136 | -118.24849 | 12980 ft | 341 kts | 121° |
| 2026-04-25 22:36 | 33.38949 | -118.22343 | 12979 ft | 352 kts | 126° |
| 2026-04-25 22:36 | 33.37753 | -118.19728 | 12986 ft | 365 kts | 121° |
| 2026-04-25 22:36 | 33.36704 | -118.16914 | 12988 ft | 376 kts | 117° |
| 2026-04-25 22:36 | 33.35657 | -118.14009 | 12984 ft | 383 kts | 119° |
| 2026-04-25 22:37 | 33.34522 | -118.11107 | 12982 ft | 386 kts | 120° |
| 2026-04-25 22:37 | 33.33366 | -118.08215 | 12981 ft | 384 kts | 120° |
| 2026-04-25 22:37 | 33.32236 | -118.05321 | 12971 ft | 383 kts | 120° |
| 2026-04-25 22:37 | 33.31120 | -118.02434 | 12969 ft | 382 kts | 119° |
| 2026-04-25 22:38 | 33.30002 | -117.99557 | 12964 ft | 381 kts | 120° |
| 2026-04-25 22:38 | 33.28875 | -117.96687 | 12969 ft | 381 kts | 120° |
| 2026-04-25 22:38 | 33.27753 | -117.93823 | 12964 ft | 381 kts | 120° |
| 2026-04-25 22:38 | 33.26634 | -117.90957 | 12967 ft | 380 kts | 120° |
| 2026-04-25 22:39 | 33.25514 | -117.88097 | 12962 ft | 380 kts | 120° |
| 2026-04-25 22:39 | 33.24393 | -117.85233 | 12966 ft | 380 kts | 120° |
| 2026-04-25 22:39 | 33.23267 | -117.82372 | 12961 ft | 380 kts | 120° |
| 2026-04-25 22:39 | 33.22148 | -117.79513 | 12965 ft | 380 kts | 120° |
| 2026-04-25 22:40 | 33.21022 | -117.76656 | 12967 ft | 380 kts | 120° |
| 2026-04-25 22:40 | 33.19903 | -117.73802 | 12960 ft | 380 kts | 120° |
| 2026-04-25 22:40 | 33.18774 | -117.70943 | 12962 ft | 380 kts | 120° |
| 2026-04-25 22:40 | 33.17652 | -117.68086 | 12961 ft | 380 kts | 120° |
| 2026-04-25 22:41 | 33.16525 | -117.65235 | 12963 ft | 380 kts | 120° |
| 2026-04-25 22:41 | 33.15401 | -117.62380 | 12969 ft | 380 kts | 120° |
| 2026-04-25 22:41 | 33.14271 | -117.59525 | 12697 ft | 379 kts | 120° |
| 2026-04-25 22:41 | 33.13156 | -117.56705 | 12318 ft | 372 kts | 119° |
| 2026-04-25 22:42 | 33.12067 | -117.53941 | 11940 ft | 366 kts | 119° |
| 2026-04-25 22:42 | 33.10984 | -117.51215 | 11573 ft | 362 kts | 119° |
| 2026-04-25 22:42 | 33.09914 | -117.48513 | 11192 ft | 359 kts | 118° |
| 2026-04-25 22:42 | 33.08851 | -117.45837 | 10834 ft | 356 kts | 118° |
| 2026-04-25 22:43 | 33.07801 | -117.43180 | 10475 ft | 353 kts | 118° |
| 2026-04-25 22:43 | 33.06750 | -117.40543 | 10117 ft | 351 kts | 118° |
| 2026-04-25 22:43 | 33.05711 | -117.37922 | 9755 ft | 349 kts | 118° |
| 2026-04-25 22:43 | 33.04636 | -117.35345 | 9364 ft | 345 kts | 123° |
| 2026-04-25 22:44 | 33.03030 | -117.33304 | 9062 ft | 335 kts | 143° |
| 2026-04-25 22:44 | 33.01450 | -117.31351 | 8987 ft | 328 kts | 132° |
| 2026-04-25 22:44 | 33.00028 | -117.29273 | 8981 ft | 319 kts | 132° |
| 2026-04-25 22:44 | 32.98661 | -117.27220 | 8973 ft | 313 kts | 131° |
| 2026-04-25 22:45 | 32.97322 | -117.25198 | 8924 ft | 310 kts | 131° |
| 2026-04-25 22:45 | 32.95970 | -117.23151 | 8543 ft | 318 kts | 131° |
| 2026-04-25 22:45 | 32.94586 | -117.21073 | 8170 ft | 323 kts | 130° |
| 2026-04-25 22:45 | 32.93173 | -117.18965 | 7799 ft | 326 kts | 131° |
| 2026-04-25 22:46 | 32.91796 | -117.16911 | 7510 ft | 306 kts | 131° |
| 2026-04-25 22:46 | 32.90525 | -117.15013 | 7332 ft | 282 kts | 131° |
| 2026-04-25 22:46 | 32.89330 | -117.13231 | 6960 ft | 269 kts | 131° |
| 2026-04-25 22:46 | 32.88184 | -117.11530 | 6588 ft | 257 kts | 131° |
| 2026-04-25 22:47 | 32.87086 | -117.09893 | 6208 ft | 249 kts | 131° |
| 2026-04-25 22:47 | 32.86021 | -117.08302 | 5817 ft | 243 kts | 131° |
| 2026-04-25 22:47 | 32.84971 | -117.06753 | 5433 ft | 238 kts | 131° |
| 2026-04-25 22:47 | 32.83935 | -117.05237 | 5049 ft | 234 kts | 131° |
| 2026-04-25 22:48 | 32.82915 | -117.03755 | 4669 ft | 229 kts | 131° |
| 2026-04-25 22:48 | 32.81912 | -117.02300 | 4320 ft | 224 kts | 131° |
| 2026-04-25 22:48 | 32.80957 | -117.00908 | 4218 ft | 211 kts | 130° |
| 2026-04-25 22:48 | 32.80054 | -116.99583 | 4188 ft | 203 kts | 131° |
| 2026-04-25 22:49 | 32.79176 | -116.98286 | 4178 ft | 200 kts | 130° |
| 2026-04-25 22:49 | 32.78318 | -116.97011 | 4186 ft | 194 kts | 131° |
| 2026-04-25 22:49 | 32.77484 | -116.95767 | 4181 ft | 191 kts | 131° |
| 2026-04-25 22:49 | 32.76663 | -116.94544 | 4183 ft | 188 kts | 131° |
| 2026-04-25 22:50 | 32.76122 | -116.93740 | 4177 ft | 187 kts | 131° |
| 2026-04-25 22:50 | 32.75047 | -116.92133 | 4180 ft | 185 kts | 131° |
| 2026-04-25 22:50 | 32.74519 | -116.91337 | 4184 ft | 185 kts | 131° |
| 2026-04-25 22:50 | 32.73714 | -116.90124 | 4185 ft | 190 kts | 131° |
| 2026-04-25 22:51 | 32.72867 | -116.88894 | 4182 ft | 194 kts | 137° |
| 2026-04-25 22:51 | 32.71645 | -116.88366 | 4184 ft | 192 kts | 188° |
| 2026-04-25 22:51 | 32.70408 | -116.88943 | 4197 ft | 193 kts | 210° |
| 2026-04-25 22:51 | 32.69298 | -116.89843 | 4199 ft | 196 kts | 234° |
| 2026-04-25 22:52 | 32.68738 | -116.91316 | 4202 ft | 198 kts | 250° |
| 2026-04-25 22:52 | 32.68264 | -116.92870 | 4193 ft | 204 kts | 250° |
| 2026-04-25 22:52 | 32.67792 | -116.94494 | 4021 ft | 213 kts | 250° |
| 2026-04-25 22:52 | 32.67672 | -116.96221 | 4080 ft | 211 kts | 285° |
| 2026-04-25 22:53 | 32.68190 | -116.97876 | 3973 ft | 216 kts | 288° |
| 2026-04-25 22:53 | 32.68677 | -116.99577 | 3895 ft | 219 kts | 287° |
| 2026-04-25 22:53 | 32.69159 | -117.01282 | 3842 ft | 215 kts | 287° |
| 2026-04-25 22:53 | 32.69575 | -117.02904 | 3977 ft | 188 kts | 283° |
| 2026-04-25 22:54 | 32.69931 | -117.04374 | 3774 ft | 181 kts | 283° |
| 2026-04-25 22:54 | 32.70201 | -117.05637 | 3587 ft | 141 kts | 282° |
| 2026-04-25 22:54 | 32.70458 | -117.06686 | 3267 ft | 126 kts | 281° |
| 2026-04-25 22:54 | 32.70680 | -117.07675 | 2770 ft | 124 kts | 279° |
| 2026-04-25 22:55 | 32.70912 | -117.08613 | 2424 ft | 112 kts | 284° |
| 2026-04-25 22:55 | 32.71142 | -117.09477 | 2058 ft | 106 kts | 281° |
| 2026-04-25 22:55 | 32.71331 | -117.10315 | 1742 ft | 102 kts | 277° |
| 2026-04-25 22:55 | 32.71492 | -117.11123 | 1424 ft | 101 kts | 283° |
| 2026-04-25 22:56 | 32.71681 | -117.11896 | 1187 ft | 98 kts | 279° |
| 2026-04-25 22:56 | 32.71870 | -117.12691 | 1064 ft | 100 kts | 282° |
| 2026-04-25 22:56 | 32.72034 | -117.13511 | 938 ft | 106 kts | 280° |
| 2026-04-25 22:56 | 32.72188 | -117.14171 | 797 ft | 108 kts | 284° |
| 2026-04-25 22:57 | 32.72402 | -117.15031 | 608 ft | 108 kts | 283° |
| 2026-04-25 22:57 | 32.72606 | -117.15889 | 448 ft | 110 kts | 284° |
| 2026-04-25 22:57 | 32.72818 | -117.16760 | 296 ft | 110 kts | 285° |
| 2026-04-25 22:57 | 32.73027 | -117.17628 | 118 ft | 108 kts | 285° |
| 2026-04-25 22:58 | 32.73227 | -117.18445 | 20 ft | 91 kts | 287° |
| 2026-04-25 22:58 | 32.73376 | -117.19033 | 18 ft | 47 kts | 292° |
| 2026-04-25 22:58 | 32.73463 | -117.19068 | 17 ft | 0 kts | 42° |
| 2026-04-25 22:59 | 32.73479 | -117.19030 | 16 ft | 16 kts | 85° |
| 2026-04-25 22:59 | 32.73445 | -117.18851 | 16 ft | 24 kts | 106° |
| 2026-04-25 22:59 | 32.73399 | -117.18662 | 16 ft | 24 kts | 106° |
| 2026-04-25 23:00 | 32.73354 | -117.18476 | 21 ft | 23 kts | 106° |
| 2026-04-25 23:00 | 32.73307 | -117.18286 | 17 ft | 25 kts | 106° |
| 2026-04-25 23:00 | 32.73258 | -117.18089 | 17 ft | 23 kts | 106° |
| 2026-04-25 23:00 | 32.73253 | -117.18068 | 17 ft | 0 kts | 106° |
| 2026-04-25 23:01 | 32.73250 | -117.18053 | 17 ft | 9 kts | 103° |
| 2026-04-25 23:01 | 32.73278 | -117.17981 | 18 ft | 12 kts | 22° |
| 2026-04-25 23:01 | 32.73357 | -117.17950 | 21 ft | 12 kts | 15° |
| 2026-04-25 23:02 | 32.73402 | -117.17968 | 21 ft | 0 kts | 304° |